This is the latest recevied weather packets stored in our database for station/object N2QDK-2. If no packets are shown the sender has not sent any weather packets the latest 10 day(s).
| Time | Temp. | Humidity | Pressure | Rain* | Wind** | Luminosity | Snow |
|---|---|---|---|---|---|---|---|
| 1777744517 | 6.67° C | 72% | 1014.2 hPa | 0 mm | - | - | - |
| 1777743917 | 7.22° C | 72% | 1014.1 hPa | 0 mm | - | - | - |
| 1777743317 | 7.22° C | 70% | 1014.1 hPa | 0 mm | - | - | - |
| 1777742717 | 7.78° C | 70% | 1014 hPa | 0 mm | - | - | - |
| 1777742117 | 7.22° C | 70% | 1014.1 hPa | 0 mm | - | - | - |
| 1777741517 | 7.22° C | 69% | 1014.2 hPa | 0 mm | - | - | - |
| 1777740917 | 7.78° C | 66% | 1014 hPa | 0 mm | - | - | - |
| 1777740317 | 7.22° C | 66% | 1014.2 hPa | 0 mm | - | - | - |
| 1777739717 | 7.22° C | 67% | 1014.3 hPa | 0 mm | - | - | - |
| 1777739117 | 6.67° C | 69% | 1014.3 hPa | 0 mm | - | - | - |
| 1777738517 | 6.67° C | 69% | 1014.3 hPa | 0 mm | - | - | - |
| 1777737917 | 6.11° C | 72% | 1014.3 hPa | 0 mm | - | - | - |
| 1777737317 | 6.11° C | 73% | 1014.4 hPa | 0 mm | - | - | - |
| 1777736717 | 6.11° C | 73% | 1014.4 hPa | 0 mm | - | - | - |
| 1777736116 | 6.11° C | 72% | 1014.5 hPa | 0 mm | - | - | - |
| 1777735516 | 5.56° C | 72% | 1014.5 hPa | 0 mm | - | - | - |
| 1777734917 | 6.11° C | 71% | 1014.6 hPa | 0 mm | - | - | - |
| 1777734317 | 6.11° C | 71% | 1014.5 hPa | 0 mm | - | - | - |
| 1777733717 | 6.11° C | 72% | 1014.6 hPa | 0 mm | - | - | - |
| 1777733116 | 6.11° C | 72% | 1014.6 hPa | 0 mm | - | - | - |
| 1777732537 | 6.67° C | 71% | 1014.6 hPa | 0 mm | - | - | - |
| 1777731917 | 7.22° C | 64% | 1014.6 hPa | 0 mm | - | - | - |
| 1777731337 | 7.22° C | 64% | 1014.6 hPa | 0 mm | - | - | - |
| 1777730716 | 6.67° C | 66% | 1014.5 hPa | 0 mm | - | - | - |
| 1777730116 | 6.67° C | 66% | 1014.7 hPa | 0 mm | - | - | - |
* Rain latest hour (hover to see other rain measurements)
** Current wind speed in m/s (hover to see current wind gust speed)